createdAt,value
2018-06-25T00:01:57.004Z,97730.97
2018-06-25T00:04:25.760Z,97730.44
2018-06-25T00:06:54.435Z,97735.66
2018-06-25T00:09:23.022Z,97730.27
2018-06-25T00:11:52.131Z,97736.66
2018-06-25T00:14:21.527Z,97734.20
2018-06-25T00:16:50.121Z,97738.34
2018-06-25T00:19:18.768Z,97738.79
2018-06-25T00:21:47.379Z,97738.44
2018-06-25T00:24:15.963Z,97738.41
2018-06-25T00:26:44.645Z,97743.45
2018-06-25T00:29:13.340Z,97733.30
2018-06-25T00:31:42.181Z,97737.42
2018-06-25T00:34:10.812Z,97734.69
2018-06-25T00:36:39.561Z,97733.84
2018-06-25T00:39:11.283Z,97732.38
2018-06-25T00:41:40.804Z,97738.16
2018-06-25T00:44:10.508Z,97736.80
2018-06-25T00:46:39.184Z,97729.63
2018-06-25T00:49:07.937Z,97732.55
2018-06-25T00:51:36.667Z,97727.90
2018-06-25T00:54:05.850Z,97722.39
2018-06-25T00:56:34.672Z,97725.88
2018-06-25T00:59:14.297Z,97725.71
2018-06-25T01:01:43.292Z,97732.39
2018-06-25T01:04:12.195Z,97728.70
2018-06-25T01:06:40.727Z,97729.78
2018-06-25T01:09:11.302Z,97728.27
2018-06-25T01:11:39.902Z,97723.06
2018-06-25T01:14:08.792Z,97727.63
2018-06-25T01:16:37.644Z,97722.95
2018-06-25T01:19:06.336Z,97725.97
2018-06-25T01:21:34.900Z,97730.63
2018-06-25T01:24:03.893Z,97726.78
2018-06-25T01:26:33.198Z,97724.98
2018-06-25T01:29:01.820Z,97720.94
2018-06-25T01:31:30.515Z,97723.13
2018-06-25T01:33:59.265Z,97718.61
2018-06-25T01:36:27.912Z,97722.38
2018-06-25T01:38:56.648Z,97722.20
2018-06-25T01:41:25.299Z,97727.78
2018-06-25T01:43:53.884Z,97727.02
2018-06-25T01:46:22.480Z,97721.55
2018-06-25T01:48:51.199Z,97720.80
2018-06-25T01:51:19.927Z,97721.36
2018-06-25T01:53:48.632Z,97721.81
2018-06-25T01:56:17.311Z,97724.09
2018-06-25T01:58:45.979Z,97719.88
2018-06-25T02:01:14.572Z,97715.41
2018-06-25T02:03:43.191Z,97715.59
2018-06-25T02:06:11.868Z,97716.69
2018-06-25T02:08:40.572Z,97714.48
2018-06-25T02:11:09.236Z,97716.88
2018-06-25T02:13:38.012Z,97714.58
2018-06-25T02:16:07.352Z,97715.30
2018-06-25T02:18:36.223Z,97717.77
2018-06-25T02:21:04.879Z,97723.35
2018-06-25T02:23:33.795Z,97725.56
2018-06-25T02:26:02.560Z,97729.85
2018-06-25T02:28:31.394Z,97721.72
2018-06-25T02:31:00.100Z,97729.02
2018-06-25T02:33:28.728Z,97722.53
2018-06-25T02:35:57.333Z,97724.09
2018-06-25T02:38:26.572Z,97732.88
2018-06-25T02:40:55.322Z,97722.35
2018-06-25T02:43:24.065Z,97727.73
2018-06-25T02:45:52.684Z,97726.83
2018-06-25T02:48:21.268Z,97730.37
2018-06-25T02:50:50.261Z,97731.72
2018-06-25T02:53:19.080Z,97728.43
2018-06-25T02:55:47.732Z,97719.19
2018-06-25T02:58:16.288Z,97726.08
2018-06-25T03:00:44.996Z,97719.09
2018-06-25T03:03:13.567Z,97725.97
2018-06-25T03:05:42.418Z,97723.94
2018-06-25T03:08:11.035Z,97724.38
2018-06-25T03:10:39.628Z,97723.17
2018-06-25T03:13:08.336Z,97717.84
2018-06-25T03:15:37.116Z,97724.56
2018-06-25T03:18:05.706Z,97724.42
2018-06-25T03:20:34.374Z,97726.98
2018-06-25T03:23:03.753Z,97725.35
2018-06-25T03:25:32.467Z,97730.54
2018-06-25T03:28:01.145Z,97733.93
2018-06-25T03:30:29.956Z,97728.09
2018-06-25T03:32:58.619Z,97739.44
2018-06-25T03:35:27.329Z,97743.52
2018-06-25T03:37:55.868Z,97738.73
2018-06-25T03:40:24.458Z,97749.08
2018-06-25T03:42:53.510Z,97749.24
2018-06-25T03:45:22.151Z,97752.14
2018-06-25T03:47:50.720Z,97739.27
2018-06-25T03:50:19.284Z,97751.66
2018-06-25T03:52:47.900Z,97752.73
2018-06-25T03:55:16.727Z,97755.83
2018-06-25T03:57:45.367Z,97763.10
2018-06-25T04:00:14.412Z,97760.61
2018-06-25T04:02:43.068Z,97762.35
2018-06-25T04:05:11.778Z,97767.27
2018-06-25T04:07:40.578Z,97770.56
2018-06-25T04:10:09.232Z,97765.89
2018-06-25T04:12:38.132Z,97778.80
2018-06-25T04:15:06.964Z,97776.36
2018-06-25T04:17:35.708Z,97782.16
2018-06-25T04:20:04.712Z,97776.13
2018-06-25T04:22:33.352Z,97787.14
2018-06-25T04:25:01.892Z,97783.03
2018-06-25T04:27:30.876Z,97783.07
2018-06-25T04:29:59.812Z,97779.23
2018-06-25T04:32:28.925Z,97769.31
2018-06-25T04:34:57.924Z,97773.64
2018-06-25T04:37:26.492Z,97776.96
2018-06-25T04:39:55.209Z,97782.64
2018-06-25T04:42:23.860Z,97786.33
2018-06-25T04:44:52.553Z,97784.42
2018-06-25T04:47:21.125Z,97789.89
2018-06-25T04:49:49.736Z,97799.14
2018-06-25T04:52:18.498Z,97794.50
2018-06-25T04:54:47.513Z,97801.23
2018-06-25T04:57:16.176Z,97806.09
2018-06-25T04:59:44.868Z,97804.95
2018-06-25T05:02:13.556Z,97805.37
2018-06-25T05:04:42.267Z,97808.92
2018-06-25T05:07:10.959Z,97819.47
2018-06-25T05:09:39.543Z,97814.66
2018-06-25T05:12:08.348Z,97816.21
2018-06-25T05:14:36.917Z,97817.31
2018-06-25T05:17:05.648Z,97821.47
2018-06-25T05:19:34.248Z,97819.88
2018-06-25T05:22:03.199Z,97813.83
2018-06-25T05:24:31.983Z,97817.39
2018-06-25T05:27:00.627Z,97818.80
2018-06-25T05:29:29.263Z,97820.94
2018-06-25T05:31:58.416Z,97820.50
2018-06-25T05:34:27.039Z,97823.42
2018-06-25T05:36:56.107Z,97822.05
2018-06-25T05:39:24.773Z,97823.06
2018-06-25T05:41:53.536Z,97829.20
2018-06-25T05:44:22.268Z,97826.61
2018-06-25T05:46:51.089Z,97834.77
2018-06-25T05:49:19.743Z,97832.98
2018-06-25T05:51:48.384Z,97837.36
2018-06-25T05:54:17.059Z,97841.80
2018-06-25T05:56:45.797Z,97837.15
2018-06-25T05:59:14.740Z,97855.74
2018-06-25T06:01:45.493Z,97853.55
2018-06-25T06:04:18.411Z,97854.52
2018-06-25T06:06:47.079Z,97860.16
2018-06-25T06:09:15.771Z,97856.67
2018-06-25T06:11:44.787Z,97857.96
2018-06-25T06:14:13.495Z,97859.51
2018-06-25T06:16:43.350Z,97864.98
2018-06-25T06:19:12.821Z,97867.22
2018-06-25T06:21:42.255Z,97867.67
2018-06-25T06:24:11.947Z,97870.45
2018-06-25T06:26:41.786Z,97873.30
2018-06-25T06:29:11.321Z,97873.00
2018-06-25T06:31:40.811Z,97877.86
2018-06-25T06:34:10.031Z,97872.42
2018-06-25T06:36:39.352Z,97878.95
2018-06-25T06:39:13.319Z,97876.80
2018-06-25T06:41:43.404Z,97884.47
2018-06-25T06:44:12.796Z,97884.26
2018-06-25T06:46:41.524Z,97882.73
2018-06-25T06:49:11.117Z,97885.35
2018-06-25T06:51:40.408Z,97886.50
2018-06-25T06:54:09.092Z,97890.70
2018-06-25T06:56:39.122Z,97887.73
2018-06-25T06:59:10.576Z,97890.57
2018-06-25T07:01:40.716Z,97886.08
2018-06-25T07:04:10.487Z,97888.18
2018-06-25T07:06:39.679Z,97890.19
2018-06-25T07:09:11.471Z,97886.57
2018-06-25T07:11:41.668Z,97893.30
2018-06-25T07:14:12.224Z,97899.05
2018-06-25T07:16:42.552Z,97895.17
2018-06-25T07:19:12.242Z,97892.67
2018-06-25T07:21:40.928Z,97896.09
2018-06-25T07:24:09.584Z,97895.96
2018-06-25T07:26:38.283Z,97897.22
2018-06-25T07:29:07.076Z,97898.42
2018-06-25T07:31:35.653Z,97901.31
2018-06-25T07:34:04.693Z,97896.58
2018-06-25T07:36:33.788Z,97896.88
2018-06-25T07:39:02.381Z,97890.95
2018-06-25T07:41:31.363Z,97898.15
2018-06-25T07:44:00.070Z,97894.51
2018-06-25T07:46:28.799Z,97886.45
2018-06-25T07:48:57.568Z,97883.92
2018-06-25T07:51:26.174Z,97885.46
2018-06-25T07:53:55.108Z,97885.30
2018-06-25T07:56:23.800Z,97888.73
2018-06-25T07:58:52.431Z,97885.55
2018-06-25T08:01:21.178Z,97888.13
2018-06-25T08:03:49.861Z,97887.72
2018-06-25T08:06:18.536Z,97890.86
2018-06-25T08:08:47.483Z,97889.25
2018-06-25T08:11:16.112Z,97889.80
2018-06-25T08:13:44.856Z,97899.02
2018-06-25T08:16:13.468Z,97898.79
2018-06-25T08:18:42.377Z,97899.28
2018-06-25T08:21:11.125Z,97904.18
2018-06-25T08:23:40.232Z,97908.62
2018-06-25T08:26:09.051Z,97908.55
2018-06-25T08:28:37.704Z,97909.50
2018-06-25T08:31:06.409Z,97914.34
2018-06-25T08:33:34.956Z,97912.61
2018-06-25T08:36:03.659Z,97915.09
2018-06-25T08:38:32.303Z,97914.41
2018-06-25T08:41:00.864Z,97913.99
2018-06-25T08:43:29.542Z,97923.06
2018-06-25T08:45:58.197Z,97929.25
2018-06-25T08:48:26.824Z,97929.97
2018-06-25T08:50:55.515Z,97929.97
2018-06-25T08:53:24.664Z,97930.27
2018-06-25T08:55:53.289Z,97932.89
2018-06-25T08:58:21.912Z,97928.20
2018-06-25T09:00:50.564Z,97937.74
2018-06-25T09:03:19.449Z,97930.08
2018-06-25T09:05:48.052Z,97929.09
2018-06-25T09:08:17.838Z,97935.31
2018-06-25T09:10:46.462Z,97936.34
2018-06-25T09:13:15.145Z,97943.68
2018-06-25T09:15:43.861Z,97937.95
2018-06-25T09:18:12.539Z,97933.98
2018-06-25T09:20:41.252Z,97937.72
2018-06-25T09:23:09.952Z,97924.85
2018-06-25T09:25:38.644Z,97936.73
2018-06-25T09:28:08.049Z,97939.12
2018-06-25T09:30:36.704Z,97945.69
2018-06-25T09:33:05.392Z,97936.43
2018-06-25T09:35:34.113Z,97938.86
2018-06-25T09:38:02.898Z,97942.66
2018-06-25T09:40:31.639Z,97944.97
2018-06-25T09:43:00.193Z,97944.45
2018-06-25T09:45:28.816Z,97953.36
2018-06-25T09:47:57.541Z,97948.33
2018-06-25T09:50:26.167Z,97953.70
2018-06-25T09:52:54.981Z,97955.10
2018-06-25T09:55:23.688Z,97952.83
2018-06-25T09:57:52.540Z,97951.61
2018-06-25T10:00:26.385Z,97950.98
2018-06-25T10:02:55.210Z,97952.67
2018-06-25T10:05:24.328Z,97942.26
2018-06-25T10:07:53.017Z,97950.72
2018-06-25T10:10:21.904Z,97950.62
2018-06-25T10:12:51.299Z,97948.83
2018-06-25T10:15:20.024Z,97955.63
2018-06-25T10:17:48.932Z,97953.51
2018-06-25T10:20:18.133Z,97949.66
2018-06-25T10:22:46.771Z,97955.54
2018-06-25T10:25:15.305Z,97955.72
2018-06-25T10:27:43.916Z,97955.30
2018-06-25T10:30:12.503Z,97956.50
2018-06-25T10:32:41.151Z,97958.41
2018-06-25T10:35:09.855Z,97951.34
2018-06-25T10:37:38.679Z,97952.30
2018-06-25T10:40:07.352Z,97950.94
2018-06-25T10:42:36.185Z,97946.36
2018-06-25T10:45:04.896Z,97948.71
2018-06-25T10:47:33.539Z,97938.15
2018-06-25T10:50:02.362Z,97942.64
2018-06-25T10:52:31.687Z,97935.69
2018-06-25T10:55:00.284Z,97933.65
2018-06-25T10:57:29.275Z,97935.39
2018-06-25T10:59:58.047Z,97937.81
2018-06-25T11:02:26.641Z,97936.61
2018-06-25T11:04:55.577Z,97943.94
2018-06-25T11:07:24.318Z,97934.20
2018-06-25T11:09:53.014Z,97933.39
2018-06-25T11:12:21.968Z,97929.71
2018-06-25T11:14:50.575Z,97934.45
2018-06-25T11:17:19.376Z,97936.52
2018-06-25T11:19:48.429Z,97930.23
2018-06-25T11:22:17.232Z,97936.39
2018-06-25T11:24:45.868Z,97929.64
2018-06-25T11:27:14.568Z,97932.05
2018-06-25T11:29:43.271Z,97928.45
2018-06-25T11:32:11.966Z,97927.31
2018-06-25T11:34:40.645Z,97926.02
2018-06-25T11:37:09.368Z,97921.36
2018-06-25T11:39:38.055Z,97925.26
2018-06-25T11:42:07.095Z,97926.30
2018-06-25T11:44:36.245Z,97935.87
2018-06-25T11:47:04.891Z,97930.09
2018-06-25T11:49:33.934Z,97931.34
2018-06-25T11:52:02.702Z,97930.14
2018-06-25T11:54:31.568Z,97918.78
2018-06-25T11:57:00.252Z,97926.70
2018-06-25T11:59:28.883Z,97923.29
2018-06-25T12:01:57.654Z,97925.32
2018-06-25T12:04:26.352Z,97922.16
2018-06-25T12:06:55.956Z,97913.06
2018-06-25T12:09:24.764Z,97906.23
2018-06-25T12:11:53.680Z,97910.23
2018-06-25T12:14:22.351Z,97908.86
2018-06-25T12:16:51.547Z,97911.06
2018-06-25T12:19:22.425Z,97911.77
2018-06-25T12:21:51.151Z,97913.52
2018-06-25T12:24:19.899Z,97919.31
2018-06-25T12:26:48.564Z,97920.80
2018-06-25T12:29:17.223Z,97906.15
2018-06-25T12:31:46.100Z,97914.31
2018-06-25T12:34:15.212Z,97909.30
2018-06-25T12:36:44.000Z,97915.04
2018-06-25T12:39:12.787Z,97907.50
2018-06-25T12:41:41.575Z,97911.53
2018-06-25T12:44:10.692Z,97905.07
2018-06-25T12:46:39.876Z,97914.70
2018-06-25T12:49:08.548Z,97909.48
2018-06-25T12:51:37.380Z,97918.31
2018-06-25T12:54:06.173Z,97918.30
2018-06-25T12:56:34.841Z,97915.33
2018-06-25T12:59:03.541Z,97913.23
2018-06-25T13:01:32.344Z,97916.00
2018-06-25T13:04:01.529Z,97919.28
2018-06-25T13:06:30.148Z,97915.70
2018-06-25T13:08:59.009Z,97913.65
2018-06-25T13:11:27.800Z,97915.03
2018-06-25T13:13:56.608Z,97918.34
2018-06-25T13:16:25.588Z,97914.53
2018-06-25T13:18:54.187Z,97922.53
2018-06-25T13:21:23.015Z,97918.19
2018-06-25T13:23:51.810Z,97923.13
2018-06-25T13:26:20.920Z,97921.35
2018-06-25T13:28:50.266Z,97924.08
2018-06-25T13:31:20.204Z,97922.23
2018-06-25T13:33:49.777Z,97924.34
2018-06-25T13:36:19.468Z,97929.39
2018-06-25T13:38:48.772Z,97926.55
2018-06-25T13:41:18.228Z,97926.34
2018-06-25T13:43:47.561Z,97926.33
2018-06-25T13:46:16.526Z,97928.43
2018-06-25T13:48:45.171Z,97923.09
2018-06-25T13:51:13.867Z,97922.03
2018-06-25T13:53:43.012Z,97920.26
2018-06-25T13:56:11.764Z,97915.70
2018-06-25T13:58:40.488Z,97910.68
2018-06-25T14:01:09.144Z,97908.92
2018-06-25T14:03:38.150Z,97910.14
2018-06-25T14:06:06.839Z,97904.23
2018-06-25T14:08:35.571Z,97912.24
2018-06-25T14:11:04.233Z,97915.15
2018-06-25T14:13:32.879Z,97915.48
2018-06-25T14:16:01.609Z,97910.44
2018-06-25T14:18:30.316Z,97914.98
2018-06-25T14:20:59.039Z,97906.73
2018-06-25T14:23:28.047Z,97906.92
2018-06-25T14:26:02.893Z,97903.41
2018-06-25T14:28:32.400Z,97911.45
2018-06-25T14:31:06.585Z,97909.30
2018-06-25T14:33:43.017Z,97897.78
2018-06-25T14:36:12.028Z,97909.60
2018-06-25T14:38:40.752Z,97900.00
2018-06-25T14:41:09.684Z,97900.02
2018-06-25T14:43:38.351Z,97897.92
2018-06-25T14:46:06.997Z,97904.02
2018-06-25T14:48:35.551Z,97898.55
2018-06-25T14:51:04.352Z,97901.04
2018-06-25T14:53:33.080Z,97899.27
2018-06-25T14:56:01.713Z,97902.92
2018-06-25T14:58:30.544Z,97901.57
2018-06-25T15:00:59.183Z,97905.75
2018-06-25T15:03:27.772Z,97896.53
2018-06-25T15:05:56.545Z,97892.42
2018-06-25T15:08:25.200Z,97888.28
2018-06-25T15:10:54.071Z,97885.31
2018-06-25T15:13:22.724Z,97886.09
2018-06-25T15:15:51.295Z,97880.94
2018-06-25T15:18:20.747Z,97886.98
2018-06-25T15:20:49.351Z,97882.71
2018-06-25T15:23:18.039Z,97888.73
2018-06-25T15:25:46.780Z,97881.77
2018-06-25T15:28:15.476Z,97886.16
2018-06-25T15:30:44.060Z,97884.70
2018-06-25T15:33:13.492Z,97888.60
2018-06-25T15:35:42.468Z,97882.29
2018-06-25T15:38:11.275Z,97882.53
2018-06-25T15:40:39.876Z,97881.30
2018-06-25T15:43:08.574Z,97884.10
2018-06-25T15:45:37.404Z,97879.17
2018-06-25T15:48:06.536Z,97876.22
2018-06-25T15:50:35.265Z,97875.51
2018-06-25T15:53:04.040Z,97885.30
2018-06-25T15:55:32.664Z,97878.12
2018-06-25T15:58:01.336Z,97877.09
2018-06-25T16:00:30.086Z,97880.81
2018-06-25T16:02:58.675Z,97880.05
2018-06-25T16:05:27.803Z,97875.07
2018-06-25T16:07:56.606Z,97870.89
2018-06-25T16:10:25.183Z,97869.12
2018-06-25T16:12:54.184Z,97870.74
2018-06-25T16:15:22.740Z,97862.69
2018-06-25T16:17:51.307Z,97865.23
2018-06-25T16:20:19.925Z,97861.34
2018-06-25T16:22:48.475Z,97869.09
2018-06-25T16:25:17.413Z,97863.16
2018-06-25T16:27:46.178Z,97866.61
2018-06-25T16:30:14.905Z,97864.02
2018-06-25T16:32:43.604Z,97861.58
2018-06-25T16:35:12.694Z,97862.72
2018-06-25T16:37:41.565Z,97862.72
2018-06-25T16:40:10.272Z,97861.94
2018-06-25T16:42:39.807Z,97863.00
2018-06-25T16:45:08.567Z,97867.18
2018-06-25T16:47:37.271Z,97866.31
2018-06-25T16:50:06.847Z,97866.14
2018-06-25T16:52:35.641Z,97865.56
2018-06-25T16:55:04.489Z,97861.36
2018-06-25T16:57:33.307Z,97862.41
2018-06-25T17:00:02.045Z,97866.91
2018-06-25T17:02:31.024Z,97864.60
2018-06-25T17:04:59.680Z,97864.34
2018-06-25T17:07:28.312Z,97865.31
2018-06-25T17:09:57.078Z,97874.08
2018-06-25T17:12:25.835Z,97872.98
2018-06-25T17:14:54.700Z,97878.48
2018-06-25T17:17:23.680Z,97873.36
2018-06-25T17:19:52.251Z,97868.70
2018-06-25T17:22:20.851Z,97878.54
2018-06-25T17:24:49.501Z,97881.38
2018-06-25T17:27:18.757Z,97882.81
2018-06-25T17:29:47.876Z,97879.00
2018-06-25T17:32:16.500Z,97879.77
2018-06-25T17:34:45.227Z,97876.83
2018-06-25T17:37:13.984Z,97879.75
2018-06-25T17:39:42.903Z,97890.45
2018-06-25T17:42:11.579Z,97888.92
2018-06-25T17:44:40.227Z,97889.16
2018-06-25T17:47:08.807Z,97888.20
2018-06-25T17:49:37.392Z,97887.28
2018-06-25T17:52:06.336Z,97880.86
2018-06-25T17:54:35.185Z,97882.72
2018-06-25T17:57:03.757Z,97886.35
2018-06-25T17:59:32.468Z,97887.08
2018-06-25T18:02:01.200Z,97879.95
2018-06-25T18:04:30.176Z,97879.77
2018-06-25T18:06:58.816Z,97883.11
2018-06-25T18:09:27.547Z,97873.39
2018-06-25T18:11:56.307Z,97879.89
2018-06-25T18:14:25.303Z,97884.97
2018-06-25T18:16:54.212Z,97887.25
2018-06-25T18:19:22.752Z,97887.28
2018-06-25T18:21:51.297Z,97890.80
2018-06-25T18:24:19.976Z,97885.27
2018-06-25T18:26:48.565Z,97888.95
2018-06-25T18:29:17.492Z,97895.54
2018-06-25T18:31:46.271Z,97891.11
2018-06-25T18:34:15.776Z,97892.38
2018-06-25T18:36:44.499Z,97888.94
2018-06-25T18:39:14.181Z,97893.45
2018-06-25T18:41:43.747Z,97889.77
2018-06-25T18:44:12.399Z,97891.17
2018-06-25T18:46:41.846Z,97889.78
2018-06-25T18:49:10.696Z,97893.75
2018-06-25T18:51:39.358Z,97893.42
2018-06-25T18:54:08.129Z,97897.84
2018-06-25T18:56:36.915Z,97903.84
2018-06-25T18:59:05.801Z,97904.07
2018-06-25T19:01:34.702Z,97909.00
2018-06-25T19:04:03.376Z,97905.75
2018-06-25T19:06:32.308Z,97902.48
2018-06-25T19:09:01.192Z,97903.69
2018-06-25T19:11:30.302Z,97907.86
2018-06-25T19:13:59.208Z,97914.85
2018-06-25T19:16:27.879Z,97914.44
2018-06-25T19:18:56.568Z,97917.67
2018-06-25T19:21:25.416Z,97922.98
2018-06-25T19:23:54.335Z,97925.44
2018-06-25T19:26:23.256Z,97924.99
2018-06-25T19:28:52.061Z,97927.28
2018-06-25T19:31:21.236Z,97921.47
2018-06-25T19:33:49.987Z,97928.54
2018-06-25T19:36:18.687Z,97917.91
2018-06-25T19:38:47.387Z,97917.65
2018-06-25T19:41:16.003Z,97929.73
2018-06-25T19:43:44.656Z,97935.41
2018-06-25T19:46:13.383Z,97938.39
2018-06-25T19:48:41.993Z,97944.23
2018-06-25T19:51:12.850Z,97955.84
2018-06-25T19:53:45.225Z,97953.78
2018-06-25T19:56:15.079Z,97958.50
2018-06-25T19:58:44.282Z,97959.61
2018-06-25T20:01:13.335Z,97959.92
2018-06-25T20:03:42.008Z,97960.95
2018-06-25T20:06:10.635Z,97961.48
2018-06-25T20:08:39.193Z,97965.47
2018-06-25T20:11:07.964Z,97965.78
2018-06-25T20:13:36.988Z,97963.61
2018-06-25T20:16:06.370Z,97967.28
2018-06-25T20:18:34.941Z,97969.40
2018-06-25T20:21:03.596Z,97967.59
2018-06-25T20:23:32.256Z,97962.53
2018-06-25T20:26:01.124Z,97962.80
2018-06-25T20:28:29.660Z,97961.14
2018-06-25T20:30:58.356Z,97964.20
2018-06-25T20:33:26.960Z,97973.01
2018-06-25T20:35:55.624Z,97969.80
2018-06-25T20:38:24.549Z,97970.09
2018-06-25T20:40:53.203Z,97970.66
2018-06-25T20:43:22.009Z,97971.75
2018-06-25T20:45:50.665Z,97971.75
2018-06-25T20:48:19.221Z,97967.74
2018-06-25T20:50:47.886Z,97971.97
2018-06-25T20:53:16.583Z,97972.05
2018-06-25T20:55:45.307Z,97969.39
2018-06-25T20:58:13.962Z,97971.23
2018-06-25T21:00:42.765Z,97976.47
2018-06-25T21:03:15.235Z,97973.54
2018-06-25T21:05:43.885Z,97976.92
2018-06-25T21:08:12.529Z,97968.50
2018-06-25T21:10:41.149Z,97979.92
2018-06-25T21:13:09.964Z,97973.11
2018-06-25T21:15:38.876Z,97975.69
2018-06-25T21:18:07.694Z,97967.34
2018-06-25T21:20:36.373Z,97969.88
2018-06-25T21:23:05.465Z,97966.66
2018-06-25T21:25:34.252Z,97971.56
2018-06-25T21:28:02.967Z,97977.07
2018-06-25T21:30:31.864Z,97974.68
2018-06-25T21:33:00.451Z,97982.38
2018-06-25T21:35:29.120Z,97977.41
2018-06-25T21:37:58.448Z,97977.20
2018-06-25T21:40:31.586Z,97979.77
2018-06-25T21:43:00.422Z,97983.23
2018-06-25T21:45:29.269Z,97965.39
2018-06-25T21:47:57.848Z,97981.13
2018-06-25T21:50:26.614Z,97971.87
2018-06-25T21:52:55.379Z,97977.17
2018-06-25T21:55:24.027Z,97981.84
2018-06-25T21:57:52.729Z,97986.66
2018-06-25T22:00:21.616Z,97979.47
2018-06-25T22:02:51.193Z,97984.70
2018-06-25T22:05:19.922Z,97985.73
2018-06-25T22:07:48.706Z,97987.83
2018-06-25T22:10:18.223Z,97983.39
2018-06-25T22:12:46.856Z,97988.97
2018-06-25T22:15:15.547Z,97983.42
2018-06-25T22:17:44.216Z,97988.66
2018-06-25T22:20:12.854Z,97988.66
2018-06-25T22:22:41.891Z,97995.60
2018-06-25T22:25:10.447Z,97994.64
2018-06-25T22:27:39.127Z,97991.47
2018-06-25T22:30:07.804Z,97996.28
2018-06-25T22:32:36.507Z,97993.75
2018-06-25T22:35:05.465Z,97994.94
2018-06-25T22:37:34.131Z,97990.61
2018-06-25T22:40:02.784Z,97987.03
2018-06-25T22:42:33.168Z,97987.64
2018-06-25T22:45:01.834Z,97986.80
2018-06-25T22:47:30.864Z,97984.15
2018-06-25T22:49:59.597Z,97978.67
2018-06-25T22:52:28.357Z,97980.53
2018-06-25T22:54:57.000Z,97980.24
2018-06-25T22:57:25.630Z,97975.34
2018-06-25T22:59:54.264Z,97966.80
2018-06-25T23:02:23.071Z,97976.78
2018-06-25T23:04:51.784Z,97966.54
2018-06-25T23:07:20.841Z,97966.88
2018-06-25T23:09:49.611Z,97968.41
2018-06-25T23:12:18.551Z,97972.47
2018-06-25T23:14:47.263Z,97970.77
2018-06-25T23:17:16.115Z,97980.70
2018-06-25T23:19:44.652Z,97975.44
2018-06-25T23:22:13.301Z,97975.36
2018-06-25T23:24:41.949Z,97978.53
2018-06-25T23:27:13.810Z,97982.38
2018-06-25T23:29:42.708Z,97982.89
2018-06-25T23:32:11.280Z,97981.16
2018-06-25T23:34:40.064Z,97986.53
2018-06-25T23:37:09.120Z,97983.64
2018-06-25T23:39:37.827Z,97976.06
2018-06-25T23:42:06.891Z,97981.03
2018-06-25T23:44:35.504Z,97981.56
2018-06-25T23:47:04.220Z,97978.23
2018-06-25T23:49:32.813Z,97985.25
2018-06-25T23:52:01.471Z,97978.16
2018-06-25T23:54:30.298Z,97985.69
2018-06-25T23:56:58.944Z,97984.84
2018-06-25T23:59:27.643Z,97982.88
